sensor_id;sensor_type;location;lat;lon;timestamp;temperature;humidity
26655;DHT22;14278;50.784;4.630;2022-07-29T00:00:01;20.30;99.90
26655;DHT22;14278;50.784;4.630;2022-07-29T00:02:27;20.20;99.90
26655;DHT22;14278;50.784;4.630;2022-07-29T00:04:54;20.30;99.90
26655;DHT22;14278;50.784;4.630;2022-07-29T00:07:20;20.40;99.90
26655;DHT22;14278;50.784;4.630;2022-07-29T00:09:45;20.40;99.90
26655;DHT22;14278;50.784;4.630;2022-07-29T00:12:11;20.10;99.90
26655;DHT22;14278;50.784;4.630;2022-07-29T00:14:37;20.10;99.90
26655;DHT22;14278;50.784;4.630;2022-07-29T00:17:03;20.10;99.90
26655;DHT22;14278;50.784;4.630;2022-07-29T00:19:29;20.10;99.90
26655;DHT22;14278;50.784;4.630;2022-07-29T00:21:55;19.90;99.90
26655;DHT22;14278;50.784;4.630;2022-07-29T00:24:20;19.70;99.90
26655;DHT22;14278;50.784;4.630;2022-07-29T00:26:46;19.90;99.90
26655;DHT22;14278;50.784;4.630;2022-07-29T00:29:13;19.90;99.90
26655;DHT22;14278;50.784;4.630;2022-07-29T00:31:38;19.80;99.90
26655;DHT22;14278;50.784;4.630;2022-07-29T00:34:04;19.90;99.90
26655;DHT22;14278;50.784;4.630;2022-07-29T00:36:31;20.00;99.90
26655;DHT22;14278;50.784;4.630;2022-07-29T00:38:57;19.90;99.90
26655;DHT22;14278;50.784;4.630;2022-07-29T00:41:23;20.10;99.90
26655;DHT22;14278;50.784;4.630;2022-07-29T00:43:49;20.10;99.90
26655;DHT22;14278;50.784;4.630;2022-07-29T00:46:15;20.20;99.90
26655;DHT22;14278;50.784;4.630;2022-07-29T00:48:40;20.10;99.90
26655;DHT22;14278;50.784;4.630;2022-07-29T00:51:07;19.70;99.90
26655;DHT22;14278;50.784;4.630;2022-07-29T00:53:34;19.60;99.90
26655;DHT22;14278;50.784;4.630;2022-07-29T00:56:01;19.50;99.90
26655;DHT22;14278;50.784;4.630;2022-07-29T00:58:26;19.40;99.90
26655;DHT22;14278;50.784;4.630;2022-07-29T01:00:52;19.40;99.90
26655;DHT22;14278;50.784;4.630;2022-07-29T01:03:18;19.50;99.90
26655;DHT22;14278;50.784;4.630;2022-07-29T01:05:45;19.80;99.90
26655;DHT22;14278;50.784;4.630;2022-07-29T01:08:13;19.90;99.90
26655;DHT22;14278;50.784;4.630;2022-07-29T01:10:41;19.70;99.90
26655;DHT22;14278;50.784;4.630;2022-07-29T01:13:07;19.70;99.90
26655;DHT22;14278;50.784;4.630;2022-07-29T01:15:44;19.70;99.90
26655;DHT22;14278;50.784;4.630;2022-07-29T01:18:18;19.60;99.90
26655;DHT22;14278;50.784;4.630;2022-07-29T01:26:22;19.50;99.90
26655;DHT22;14278;50.784;4.630;2022-07-29T01:34:05;19.30;99.90
26655;DHT22;14278;50.784;4.630;2022-07-29T01:36:36;19.30;99.90
26655;DHT22;14278;50.784;4.630;2022-07-29T01:39:10;19.30;99.90
26655;DHT22;14278;50.784;4.630;2022-07-29T01:41:40;19.00;99.90
26655;DHT22;14278;50.784;4.630;2022-07-29T01:44:15;19.00;99.90
26655;DHT22;14278;50.784;4.630;2022-07-29T01:46:50;19.00;99.90
26655;DHT22;14278;50.784;4.630;2022-07-29T01:49:22;19.10;99.90
26655;DHT22;14278;50.784;4.630;2022-07-29T01:51:53;18.80;99.90
26655;DHT22;14278;50.784;4.630;2022-07-29T01:54:24;18.60;99.90
26655;DHT22;14278;50.784;4.630;2022-07-29T01:56:54;18.70;99.90
26655;DHT22;14278;50.784;4.630;2022-07-29T01:59:21;18.70;99.90
26655;DHT22;14278;50.784;4.630;2022-07-29T02:01:50;18.90;99.90
26655;DHT22;14278;50.784;4.630;2022-07-29T02:04:19;19.00;99.90
26655;DHT22;14278;50.784;4.630;2022-07-29T02:06:48;19.00;99.90
26655;DHT22;14278;50.784;4.630;2022-07-29T02:09:15;18.90;99.90
26655;DHT22;14278;50.784;4.630;2022-07-29T02:11:48;18.70;99.90
26655;DHT22;14278;50.784;4.630;2022-07-29T02:14:17;18.70;99.90
26655;DHT22;14278;50.784;4.630;2022-07-29T02:16:44;18.60;99.90
26655;DHT22;14278;50.784;4.630;2022-07-29T02:19:11;18.60;99.90
26655;DHT22;14278;50.784;4.630;2022-07-29T02:21:39;18.50;99.90
26655;DHT22;14278;50.784;4.630;2022-07-29T02:24:05;18.70;99.90
26655;DHT22;14278;50.784;4.630;2022-07-29T02:26:32;18.90;99.90
26655;DHT22;14278;50.784;4.630;2022-07-29T02:29:00;18.70;99.90
26655;DHT22;14278;50.784;4.630;2022-07-29T02:31:30;18.70;99.90
26655;DHT22;14278;50.784;4.630;2022-07-29T02:33:57;18.80;99.90
26655;DHT22;14278;50.784;4.630;2022-07-29T02:36:24;19.00;99.90
26655;DHT22;14278;50.784;4.630;2022-07-29T02:38:51;19.10;99.90
26655;DHT22;14278;50.784;4.630;2022-07-29T02:41:29;18.80;99.90
26655;DHT22;14278;50.784;4.630;2022-07-29T02:43:58;18.50;99.90
26655;DHT22;14278;50.784;4.630;2022-07-29T02:46:32;18.40;99.90
26655;DHT22;14278;50.784;4.630;2022-07-29T02:51:54;18.30;99.90
26655;DHT22;14278;50.784;4.630;2022-07-29T02:54:47;18.20;99.90
26655;DHT22;14278;50.784;4.630;2022-07-29T02:57:30;17.60;99.90
26655;DHT22;14278;50.784;4.630;2022-07-29T02:59:59;17.60;99.90
26655;DHT22;14278;50.784;4.630;2022-07-29T03:02:29;17.40;99.90
26655;DHT22;14278;50.784;4.630;2022-07-29T03:04:57;17.20;99.90
26655;DHT22;14278;50.784;4.630;2022-07-29T03:07:24;17.20;99.90
26655;DHT22;14278;50.784;4.630;2022-07-29T03:09:51;17.30;99.90
26655;DHT22;14278;50.784;4.630;2022-07-29T03:12:18;17.10;99.90
26655;DHT22;14278;50.784;4.630;2022-07-29T03:14:44;17.30;99.90
26655;DHT22;14278;50.784;4.630;2022-07-29T03:17:10;17.40;99.90
26655;DHT22;14278;50.784;4.630;2022-07-29T03:19:37;17.50;99.90
26655;DHT22;14278;50.784;4.630;2022-07-29T03:22:03;17.70;99.90
26655;DHT22;14278;50.784;4.630;2022-07-29T03:24:35;17.70;99.90
26655;DHT22;14278;50.784;4.630;2022-07-29T03:27:02;17.70;99.90
26655;DHT22;14278;50.784;4.630;2022-07-29T03:29:28;17.70;99.90
26655;DHT22;14278;50.784;4.630;2022-07-29T03:31:54;17.60;99.90
26655;DHT22;14278;50.784;4.630;2022-07-29T03:34:20;17.70;99.90
26655;DHT22;14278;50.784;4.630;2022-07-29T03:36:47;17.60;99.90
26655;DHT22;14278;50.784;4.630;2022-07-29T03:39:17;17.60;99.90
26655;DHT22;14278;50.784;4.630;2022-07-29T03:41:45;17.60;99.90
26655;DHT22;14278;50.784;4.630;2022-07-29T03:44:13;17.50;99.90
26655;DHT22;14278;50.784;4.630;2022-07-29T03:46:41;17.50;99.90
26655;DHT22;14278;50.784;4.630;2022-07-29T03:49:09;17.30;99.90
26655;DHT22;14278;50.784;4.630;2022-07-29T03:51:36;17.40;99.90
26655;DHT22;14278;50.784;4.630;2022-07-29T03:54:03;17.20;99.90
26655;DHT22;14278;50.784;4.630;2022-07-29T03:56:29;16.70;99.90
26655;DHT22;14278;50.784;4.630;2022-07-29T03:58:58;16.90;99.90
26655;DHT22;14278;50.784;4.630;2022-07-29T04:01:24;17.00;99.90
26655;DHT22;14278;50.784;4.630;2022-07-29T04:03:51;17.00;99.90
26655;DHT22;14278;50.784;4.630;2022-07-29T04:06:17;16.80;99.90
26655;DHT22;14278;50.784;4.630;2022-07-29T04:08:43;16.90;99.90
26655;DHT22;14278;50.784;4.630;2022-07-29T04:11:09;17.00;99.90
26655;DHT22;14278;50.784;4.630;2022-07-29T04:13:35;16.90;99.90
26655;DHT22;14278;50.784;4.630;2022-07-29T04:16:01;16.90;99.90
26655;DHT22;14278;50.784;4.630;2022-07-29T04:18:27;17.10;99.90
26655;DHT22;14278;50.784;4.630;2022-07-29T04:20:52;17.00;99.90
26655;DHT22;14278;50.784;4.630;2022-07-29T04:23:19;16.80;99.90
26655;DHT22;14278;50.784;4.630;2022-07-29T04:25:44;17.00;99.90
26655;DHT22;14278;50.784;4.630;2022-07-29T04:28:10;17.00;99.90
26655;DHT22;14278;50.784;4.630;2022-07-29T04:30:37;17.10;99.90
26655;DHT22;14278;50.784;4.630;2022-07-29T04:33:06;16.90;99.90
26655;DHT22;14278;50.784;4.630;2022-07-29T04:35:39;16.80;99.90
26655;DHT22;14278;50.784;4.630;2022-07-29T04:38:06;16.90;99.90
26655;DHT22;14278;50.784;4.630;2022-07-29T04:40:32;17.20;99.90
26655;DHT22;14278;50.784;4.630;2022-07-29T04:42:59;17.20;99.90
26655;DHT22;14278;50.784;4.630;2022-07-29T04:45:26;17.30;99.90
26655;DHT22;14278;50.784;4.630;2022-07-29T04:47:52;17.40;99.90
26655;DHT22;14278;50.784;4.630;2022-07-29T04:50:18;17.40;99.90
26655;DHT22;14278;50.784;4.630;2022-07-29T04:52:44;17.20;99.90
26655;DHT22;14278;50.784;4.630;2022-07-29T04:55:09;17.30;99.90
26655;DHT22;14278;50.784;4.630;2022-07-29T04:57:35;17.50;99.90
26655;DHT22;14278;50.784;4.630;2022-07-29T05:00:03;17.30;99.90
26655;DHT22;14278;50.784;4.630;2022-07-29T05:02:29;17.30;99.90
26655;DHT22;14278;50.784;4.630;2022-07-29T05:04:54;17.70;99.90
26655;DHT22;14278;50.784;4.630;2022-07-29T05:07:20;17.90;99.90
26655;DHT22;14278;50.784;4.630;2022-07-29T05:09:46;18.10;99.90
26655;DHT22;14278;50.784;4.630;2022-07-29T05:12:12;18.50;99.90
26655;DHT22;14278;50.784;4.630;2022-07-29T05:14:38;18.30;99.90
26655;DHT22;14278;50.784;4.630;2022-07-29T05:17:03;18.20;99.90
26655;DHT22;14278;50.784;4.630;2022-07-29T05:19:29;18.30;99.90
26655;DHT22;14278;50.784;4.630;2022-07-29T05:21:55;18.40;99.90
26655;DHT22;14278;50.784;4.630;2022-07-29T05:24:21;18.50;99.90
26655;DHT22;14278;50.784;4.630;2022-07-29T05:26:47;18.80;99.90
26655;DHT22;14278;50.784;4.630;2022-07-29T05:29:13;19.00;99.90
26655;DHT22;14278;50.784;4.630;2022-07-29T05:31:39;19.30;99.90
26655;DHT22;14278;50.784;4.630;2022-07-29T05:34:04;19.40;99.90
26655;DHT22;14278;50.784;4.630;2022-07-29T05:36:31;19.40;99.90
26655;DHT22;14278;50.784;4.630;2022-07-29T05:38:56;19.40;99.90
26655;DHT22;14278;50.784;4.630;2022-07-29T05:41:23;19.70;99.90
26655;DHT22;14278;50.784;4.630;2022-07-29T05:43:48;20.00;99.90
26655;DHT22;14278;50.784;4.630;2022-07-29T05:46:14;19.60;99.90
26655;DHT22;14278;50.784;4.630;2022-07-29T05:48:41;19.90;99.90
26655;DHT22;14278;50.784;4.630;2022-07-29T05:51:06;20.30;99.90
26655;DHT22;14278;50.784;4.630;2022-07-29T05:53:32;20.30;99.90
26655;DHT22;14278;50.784;4.630;2022-07-29T05:55:58;20.10;99.90
26655;DHT22;14278;50.784;4.630;2022-07-29T05:58:28;19.70;99.90
26655;DHT22;14278;50.784;4.630;2022-07-29T06:00:54;20.30;99.90
26655;DHT22;14278;50.784;4.630;2022-07-29T06:03:24;19.90;99.90
26655;DHT22;14278;50.784;4.630;2022-07-29T06:05:50;19.90;99.90
26655;DHT22;14278;50.784;4.630;2022-07-29T06:08:16;20.30;99.90
26655;DHT22;14278;50.784;4.630;2022-07-29T06:10:43;20.60;99.90
26655;DHT22;14278;50.784;4.630;2022-07-29T06:13:09;20.70;99.90
26655;DHT22;14278;50.784;4.630;2022-07-29T06:15:35;20.60;99.90
26655;DHT22;14278;50.784;4.630;2022-07-29T06:18:01;20.10;99.90
26655;DHT22;14278;50.784;4.630;2022-07-29T06:20:30;20.00;99.90
26655;DHT22;14278;50.784;4.630;2022-07-29T06:22:57;20.00;99.90
26655;DHT22;14278;50.784;4.630;2022-07-29T06:25:23;20.20;99.90
26655;DHT22;14278;50.784;4.630;2022-07-29T06:27:49;20.10;99.90
26655;DHT22;14278;50.784;4.630;2022-07-29T06:30:15;19.90;99.90
26655;DHT22;14278;50.784;4.630;2022-07-29T06:32:40;20.10;99.90
26655;DHT22;14278;50.784;4.630;2022-07-29T06:35:06;20.10;99.90
26655;DHT22;14278;50.784;4.630;2022-07-29T06:37:33;19.60;99.90
26655;DHT22;14278;50.784;4.630;2022-07-29T06:39:58;19.70;99.90
26655;DHT22;14278;50.784;4.630;2022-07-29T06:42:43;19.60;99.90
26655;DHT22;14278;50.784;4.630;2022-07-29T06:45:10;19.40;99.90
26655;DHT22;14278;50.784;4.630;2022-07-29T06:47:36;20.00;99.90
26655;DHT22;14278;50.784;4.630;2022-07-29T06:50:03;20.40;99.90
26655;DHT22;14278;50.784;4.630;2022-07-29T06:52:28;21.40;99.90
26655;DHT22;14278;50.784;4.630;2022-07-29T06:54:54;23.00;99.90
26655;DHT22;14278;50.784;4.630;2022-07-29T06:57:21;24.50;99.90
26655;DHT22;14278;50.784;4.630;2022-07-29T06:59:47;27.20;99.90
26655;DHT22;14278;50.784;4.630;2022-07-29T07:02:13;29.90;99.90
26655;DHT22;14278;50.784;4.630;2022-07-29T07:04:39;32.50;99.90
26655;DHT22;14278;50.784;4.630;2022-07-29T07:07:05;34.30;98.20
26655;DHT22;14278;50.784;4.630;2022-07-29T07:09:31;36.20;95.10
26655;DHT22;14278;50.784;4.630;2022-07-29T07:11:56;38.20;91.90
26655;DHT22;14278;50.784;4.630;2022-07-29T07:14:23;37.80;89.00
26655;DHT22;14278;50.784;4.630;2022-07-29T07:16:49;36.70;90.20
26655;DHT22;14278;50.784;4.630;2022-07-29T07:19:14;39.10;86.40
26655;DHT22;14278;50.784;4.630;2022-07-29T07:21:40;40.60;82.40
26655;DHT22;14278;50.784;4.630;2022-07-29T07:24:06;41.00;77.70
26655;DHT22;14278;50.784;4.630;2022-07-29T07:26:32;40.60;76.70
26655;DHT22;14278;50.784;4.630;2022-07-29T07:28:58;40.40;75.40
26655;DHT22;14278;50.784;4.630;2022-07-29T07:31:25;36.50;77.60
26655;DHT22;14278;50.784;4.630;2022-07-29T07:33:51;37.60;78.80
26655;DHT22;14278;50.784;4.630;2022-07-29T07:36:18;39.50;77.20
26655;DHT22;14278;50.784;4.630;2022-07-29T07:38:45;40.60;75.70
26655;DHT22;14278;50.784;4.630;2022-07-29T07:41:10;40.40;72.00
26655;DHT22;14278;50.784;4.630;2022-07-29T07:43:36;39.10;73.50
26655;DHT22;14278;50.784;4.630;2022-07-29T07:46:02;40.00;72.50
26655;DHT22;14278;50.784;4.630;2022-07-29T07:48:28;38.50;73.40
26655;DHT22;14278;50.784;4.630;2022-07-29T07:50:54;39.50;72.50
26655;DHT22;14278;50.784;4.630;2022-07-29T07:53:20;41.30;71.70
26655;DHT22;14278;50.784;4.630;2022-07-29T07:55:46;41.20;70.70
26655;DHT22;14278;50.784;4.630;2022-07-29T07:58:11;41.60;69.80
26655;DHT22;14278;50.784;4.630;2022-07-29T08:00:37;42.20;69.20
26655;DHT22;14278;50.784;4.630;2022-07-29T08:03:03;43.10;66.90
26655;DHT22;14278;50.784;4.630;2022-07-29T08:05:29;43.00;66.70
26655;DHT22;14278;50.784;4.630;2022-07-29T08:07:55;43.30;65.30
26655;DHT22;14278;50.784;4.630;2022-07-29T08:10:21;43.50;65.80
26655;DHT22;14278;50.784;4.630;2022-07-29T08:13:06;43.90;64.40
26655;DHT22;14278;50.784;4.630;2022-07-29T08:15:33;42.40;67.00
26655;DHT22;14278;50.784;4.630;2022-07-29T08:17:59;41.80;65.90
26655;DHT22;14278;50.784;4.630;2022-07-29T08:20:25;41.80;66.20
26655;DHT22;14278;50.784;4.630;2022-07-29T08:22:51;40.20;68.70
26655;DHT22;14278;50.784;4.630;2022-07-29T08:25:19;38.80;70.30
26655;DHT22;14278;50.784;4.630;2022-07-29T08:27:46;36.90;71.90
26655;DHT22;14278;50.784;4.630;2022-07-29T08:30:12;32.20;81.20
26655;DHT22;14278;50.784;4.630;2022-07-29T08:32:38;31.90;82.50
26655;DHT22;14278;50.784;4.630;2022-07-29T08:35:04;31.90;82.90
26655;DHT22;14278;50.784;4.630;2022-07-29T08:37:30;32.60;82.10
26655;DHT22;14278;50.784;4.630;2022-07-29T08:39:56;33.20;81.00
26655;DHT22;14278;50.784;4.630;2022-07-29T08:42:22;32.60;81.30
26655;DHT22;14278;50.784;4.630;2022-07-29T08:44:48;30.70;84.00
26655;DHT22;14278;50.784;4.630;2022-07-29T08:47:15;28.30;89.30
26655;DHT22;14278;50.784;4.630;2022-07-29T08:49:40;27.40;92.10
26655;DHT22;14278;50.784;4.630;2022-07-29T08:52:07;26.90;93.60
26655;DHT22;14278;50.784;4.630;2022-07-29T08:54:35;27.40;93.20
26655;DHT22;14278;50.784;4.630;2022-07-29T08:57:02;27.20;94.60
26655;DHT22;14278;50.784;4.630;2022-07-29T08:59:29;27.50;94.40
26655;DHT22;14278;50.784;4.630;2022-07-29T09:01:57;26.60;94.50
26655;DHT22;14278;50.784;4.630;2022-07-29T09:04:29;26.50;95.50
26655;DHT22;14278;50.784;4.630;2022-07-29T09:06:57;26.10;97.00
26655;DHT22;14278;50.784;4.630;2022-07-29T09:09:26;26.40;97.60
26655;DHT22;14278;50.784;4.630;2022-07-29T09:11:52;26.60;95.80
26655;DHT22;14278;50.784;4.630;2022-07-29T09:14:18;26.90;95.70
26655;DHT22;14278;50.784;4.630;2022-07-29T09:16:54;27.00;95.60
26655;DHT22;14278;50.784;4.630;2022-07-29T09:19:32;27.20;95.50
26655;DHT22;14278;50.784;4.630;2022-07-29T09:22:00;27.50;95.30
26655;DHT22;14278;50.784;4.630;2022-07-29T09:24:38;27.10;95.70
26655;DHT22;14278;50.784;4.630;2022-07-29T09:27:24;26.60;97.10
26655;DHT22;14278;50.784;4.630;2022-07-29T09:30:06;26.10;97.20
26655;DHT22;14278;50.784;4.630;2022-07-29T09:32:33;26.30;97.90
26655;DHT22;14278;50.784;4.630;2022-07-29T09:35:24;26.20;99.00
26655;DHT22;14278;50.784;4.630;2022-07-29T09:37:50;26.60;98.60
26655;DHT22;14278;50.784;4.630;2022-07-29T09:40:19;26.70;97.30
26655;DHT22;14278;50.784;4.630;2022-07-29T09:42:46;27.10;96.10
26655;DHT22;14278;50.784;4.630;2022-07-29T09:45:25;28.60;94.40
26655;DHT22;14278;50.784;4.630;2022-07-29T09:47:51;28.80;93.80
26655;DHT22;14278;50.784;4.630;2022-07-29T09:50:17;28.50;93.40
26655;DHT22;14278;50.784;4.630;2022-07-29T09:52:50;28.50;94.10
26655;DHT22;14278;50.784;4.630;2022-07-29T09:55:18;27.70;94.60
26655;DHT22;14278;50.784;4.630;2022-07-29T09:57:44;27.40;95.80
26655;DHT22;14278;50.784;4.630;2022-07-29T10:00:15;27.60;95.50
26655;DHT22;14278;50.784;4.630;2022-07-29T10:02:43;28.40;94.00
26655;DHT22;14278;50.784;4.630;2022-07-29T10:05:26;28.70;93.20
26655;DHT22;14278;50.784;4.630;2022-07-29T10:07:55;27.70;94.30
26655;DHT22;14278;50.784;4.630;2022-07-29T10:10:27;27.80;94.50
26655;DHT22;14278;50.784;4.630;2022-07-29T10:12:55;27.40;95.20
26655;DHT22;14278;50.784;4.630;2022-07-29T10:15:27;26.20;97.40
26655;DHT22;14278;50.784;4.630;2022-07-29T10:17:55;26.30;98.60
26655;DHT22;14278;50.784;4.630;2022-07-29T10:20:22;26.20;97.00
26655;DHT22;14278;50.784;4.630;2022-07-29T10:22:49;26.10;98.10
26655;DHT22;14278;50.784;4.630;2022-07-29T10:25:16;26.10;98.60
26655;DHT22;14278;50.784;4.630;2022-07-29T10:27:43;26.20;97.90
26655;DHT22;14278;50.784;4.630;2022-07-29T10:30:09;26.80;97.50
26655;DHT22;14278;50.784;4.630;2022-07-29T10:35:59;27.60;96.10
26655;DHT22;14278;50.784;4.630;2022-07-29T10:38:41;29.60;93.40
26655;DHT22;14278;50.784;4.630;2022-07-29T10:44:08;32.10;89.10
26655;DHT22;14278;50.784;4.630;2022-07-29T10:46:39;33.50;88.50
26655;DHT22;14278;50.784;4.630;2022-07-29T10:51:54;37.30;81.20
26655;DHT22;14278;50.784;4.630;2022-07-29T10:57:12;39.20;79.50
26655;DHT22;14278;50.784;4.630;2022-07-29T10:59:38;39.70;73.90
26655;DHT22;14278;50.784;4.630;2022-07-29T11:07:27;37.70;75.20
26655;DHT22;14278;50.784;4.630;2022-07-29T11:12:48;36.70;78.90
26655;DHT22;14278;50.784;4.630;2022-07-29T11:15:19;35.40;75.30
26655;DHT22;14278;50.784;4.630;2022-07-29T11:18:06;32.60;84.70
26655;DHT22;14278;50.784;4.630;2022-07-29T11:22:59;35.30;80.60
26655;DHT22;14278;50.784;4.630;2022-07-29T11:25:25;37.10;78.30
26655;DHT22;14278;50.784;4.630;2022-07-29T11:27:52;35.80;77.90
26655;DHT22;14278;50.784;4.630;2022-07-29T11:30:20;36.40;77.20
26655;DHT22;14278;50.784;4.630;2022-07-29T11:32:46;36.80;76.00
26655;DHT22;14278;50.784;4.630;2022-07-29T11:35:18;37.60;74.70
26655;DHT22;14278;50.784;4.630;2022-07-29T11:37:46;38.00;75.80
26655;DHT22;14278;50.784;4.630;2022-07-29T11:40:14;36.90;73.30
26655;DHT22;14278;50.784;4.630;2022-07-29T11:42:42;37.60;76.20
26655;DHT22;14278;50.784;4.630;2022-07-29T11:45:13;37.80;75.40
26655;DHT22;14278;50.784;4.630;2022-07-29T11:50:17;38.60;74.30
26655;DHT22;14278;50.784;4.630;2022-07-29T11:52:45;37.00;71.00
26655;DHT22;14278;50.784;4.630;2022-07-29T11:55:15;35.10;73.80
26655;DHT22;14278;50.784;4.630;2022-07-29T11:57:58;32.50;80.70
26655;DHT22;14278;50.784;4.630;2022-07-29T12:00:33;33.60;80.40
26655;DHT22;14278;50.784;4.630;2022-07-29T12:03:03;34.30;77.70
26655;DHT22;14278;50.784;4.630;2022-07-29T12:05:41;34.60;77.70
26655;DHT22;14278;50.784;4.630;2022-07-29T12:08:09;34.60;79.70
26655;DHT22;14278;50.784;4.630;2022-07-29T12:10:36;33.90;81.50
26655;DHT22;14278;50.784;4.630;2022-07-29T12:13:02;33.50;82.00
26655;DHT22;14278;50.784;4.630;2022-07-29T12:15:28;31.50;79.10
26655;DHT22;14278;50.784;4.630;2022-07-29T12:17:54;31.60;84.50
26655;DHT22;14278;50.784;4.630;2022-07-29T12:20:28;31.60;84.70
26655;DHT22;14278;50.784;4.630;2022-07-29T12:22:55;31.80;84.00
26655;DHT22;14278;50.784;4.630;2022-07-29T12:25:24;32.10;83.70
26655;DHT22;14278;50.784;4.630;2022-07-29T12:28:05;31.80;83.50
26655;DHT22;14278;50.784;4.630;2022-07-29T12:30:47;31.70;84.90
26655;DHT22;14278;50.784;4.630;2022-07-29T12:33:23;31.80;83.00
26655;DHT22;14278;50.784;4.630;2022-07-29T12:35:54;31.70;82.00
26655;DHT22;14278;50.784;4.630;2022-07-29T12:38:21;31.10;83.90
26655;DHT22;14278;50.784;4.630;2022-07-29T12:40:48;30.70;82.90
26655;DHT22;14278;50.784;4.630;2022-07-29T12:43:16;30.30;83.10
26655;DHT22;14278;50.784;4.630;2022-07-29T12:45:46;29.60;87.00
26655;DHT22;14278;50.784;4.630;2022-07-29T12:48:12;29.60;85.20
26655;DHT22;14278;50.784;4.630;2022-07-29T12:50:58;29.70;87.80
26655;DHT22;14278;50.784;4.630;2022-07-29T12:53:24;29.80;86.50
26655;DHT22;14278;50.784;4.630;2022-07-29T12:55:53;29.70;85.10
26655;DHT22;14278;50.784;4.630;2022-07-29T12:58:33;29.40;86.60
26655;DHT22;14278;50.784;4.630;2022-07-29T13:01:10;29.40;87.40
26655;DHT22;14278;50.784;4.630;2022-07-29T13:03:53;29.40;87.40
26655;DHT22;14278;50.784;4.630;2022-07-29T13:09:10;29.30;88.20
26655;DHT22;14278;50.784;4.630;2022-07-29T13:11:38;29.20;89.10
26655;DHT22;14278;50.784;4.630;2022-07-29T13:14:08;29.30;89.10
26655;DHT22;14278;50.784;4.630;2022-07-29T13:16:35;29.70;90.00
26655;DHT22;14278;50.784;4.630;2022-07-29T13:19:10;29.70;90.00
26655;DHT22;14278;50.784;4.630;2022-07-29T13:21:37;29.50;89.50
26655;DHT22;14278;50.784;4.630;2022-07-29T13:24:07;29.30;89.30
26655;DHT22;14278;50.784;4.630;2022-07-29T13:26:33;29.50;87.50
26655;DHT22;14278;50.784;4.630;2022-07-29T13:28:59;28.80;89.10
26655;DHT22;14278;50.784;4.630;2022-07-29T13:31:25;28.90;88.80
26655;DHT22;14278;50.784;4.630;2022-07-29T13:33:51;29.10;88.20
26655;DHT22;14278;50.784;4.630;2022-07-29T13:36:17;28.90;85.70
26655;DHT22;14278;50.784;4.630;2022-07-29T13:38:43;28.00;88.90
26655;DHT22;14278;50.784;4.630;2022-07-29T13:41:09;27.30;89.00
26655;DHT22;14278;50.784;4.630;2022-07-29T13:43:35;26.50;92.60
26655;DHT22;14278;50.784;4.630;2022-07-29T13:46:01;26.90;92.90
26655;DHT22;14278;50.784;4.630;2022-07-29T13:48:26;27.20;92.30
26655;DHT22;14278;50.784;4.630;2022-07-29T13:50:52;27.20;92.30
26655;DHT22;14278;50.784;4.630;2022-07-29T13:53:18;27.80;91.00
26655;DHT22;14278;50.784;4.630;2022-07-29T13:55:44;28.10;92.00
26655;DHT22;14278;50.784;4.630;2022-07-29T13:58:10;28.10;90.10
26655;DHT22;14278;50.784;4.630;2022-07-29T14:00:36;28.50;90.10
26655;DHT22;14278;50.784;4.630;2022-07-29T14:03:01;28.30;91.30
26655;DHT22;14278;50.784;4.630;2022-07-29T14:05:27;28.70;89.80
26655;DHT22;14278;50.784;4.630;2022-07-29T14:07:54;29.10;88.50
26655;DHT22;14278;50.784;4.630;2022-07-29T14:10:20;29.00;87.00
26655;DHT22;14278;50.784;4.630;2022-07-29T14:12:45;29.30;89.00
26655;DHT22;14278;50.784;4.630;2022-07-29T14:15:11;29.50;88.40
26655;DHT22;14278;50.784;4.630;2022-07-29T14:17:37;29.80;86.20
26655;DHT22;14278;50.784;4.630;2022-07-29T14:20:03;28.80;88.40
26655;DHT22;14278;50.784;4.630;2022-07-29T14:22:29;28.70;89.00
26655;DHT22;14278;50.784;4.630;2022-07-29T14:24:55;29.00;86.90
26655;DHT22;14278;50.784;4.630;2022-07-29T14:27:21;28.90;88.30
26655;DHT22;14278;50.784;4.630;2022-07-29T14:29:46;28.60;90.40
26655;DHT22;14278;50.784;4.630;2022-07-29T14:32:13;28.70;89.30
26655;DHT22;14278;50.784;4.630;2022-07-29T14:34:40;28.80;88.90
26655;DHT22;14278;50.784;4.630;2022-07-29T14:37:06;28.60;86.70
26655;DHT22;14278;50.784;4.630;2022-07-29T14:39:32;28.70;88.30
26655;DHT22;14278;50.784;4.630;2022-07-29T14:41:58;28.40;90.00
26655;DHT22;14278;50.784;4.630;2022-07-29T14:44:24;28.50;90.70
26655;DHT22;14278;50.784;4.630;2022-07-29T14:46:59;28.40;89.40
26655;DHT22;14278;50.784;4.630;2022-07-29T14:49:26;28.70;90.30
26655;DHT22;14278;50.784;4.630;2022-07-29T14:51:52;28.70;86.90
26655;DHT22;14278;50.784;4.630;2022-07-29T14:54:17;28.60;88.90
26655;DHT22;14278;50.784;4.630;2022-07-29T14:56:44;28.40;88.40
26655;DHT22;14278;50.784;4.630;2022-07-29T14:59:10;27.80;90.30
26655;DHT22;14278;50.784;4.630;2022-07-29T15:01:36;28.00;88.10
26655;DHT22;14278;50.784;4.630;2022-07-29T15:04:02;27.90;88.50
26655;DHT22;14278;50.784;4.630;2022-07-29T15:06:27;27.90;89.80
26655;DHT22;14278;50.784;4.630;2022-07-29T15:08:54;27.40;90.60
26655;DHT22;14278;50.784;4.630;2022-07-29T15:11:19;27.40;91.10
26655;DHT22;14278;50.784;4.630;2022-07-29T15:13:45;27.90;90.50
26655;DHT22;14278;50.784;4.630;2022-07-29T15:16:11;28.00;91.00
26655;DHT22;14278;50.784;4.630;2022-07-29T15:18:37;28.00;90.70
26655;DHT22;14278;50.784;4.630;2022-07-29T15:21:04;27.80;90.90
26655;DHT22;14278;50.784;4.630;2022-07-29T15:23:32;27.70;90.20
26655;DHT22;14278;50.784;4.630;2022-07-29T15:25:58;27.50;90.00
26655;DHT22;14278;50.784;4.630;2022-07-29T15:28:24;27.60;89.30
26655;DHT22;14278;50.784;4.630;2022-07-29T15:30:50;27.60;87.70
26655;DHT22;14278;50.784;4.630;2022-07-29T15:33:16;27.90;91.10
26655;DHT22;14278;50.784;4.630;2022-07-29T15:35:43;28.20;88.50
26655;DHT22;14278;50.784;4.630;2022-07-29T15:38:08;28.00;89.80
26655;DHT22;14278;50.784;4.630;2022-07-29T15:40:36;28.20;87.50
26655;DHT22;14278;50.784;4.630;2022-07-29T15:43:06;28.20;87.70
26655;DHT22;14278;50.784;4.630;2022-07-29T15:45:36;28.70;88.40
26655;DHT22;14278;50.784;4.630;2022-07-29T15:48:03;28.70;89.30
26655;DHT22;14278;50.784;4.630;2022-07-29T15:50:29;28.90;86.20
26655;DHT22;14278;50.784;4.630;2022-07-29T15:52:55;28.60;86.50
26655;DHT22;14278;50.784;4.630;2022-07-29T15:55:20;28.80;86.70
26655;DHT22;14278;50.784;4.630;2022-07-29T15:57:47;28.10;90.30
26655;DHT22;14278;50.784;4.630;2022-07-29T16:00:13;28.10;87.20
26655;DHT22;14278;50.784;4.630;2022-07-29T16:02:38;28.00;88.30
26655;DHT22;14278;50.784;4.630;2022-07-29T16:05:05;27.90;88.90
26655;DHT22;14278;50.784;4.630;2022-07-29T16:07:31;28.10;88.00
26655;DHT22;14278;50.784;4.630;2022-07-29T16:09:57;27.80;86.90
26655;DHT22;14278;50.784;4.630;2022-07-29T16:12:23;28.00;88.10
26655;DHT22;14278;50.784;4.630;2022-07-29T16:14:49;28.00;88.20